Time;durP1;ratioP1;P1;durP2;ratioP2;P2;SDS_P1;SDS_P2;PMS_P1;PMS_P2;Temp;Humidity;BMP_temperature;BMP_pressure;BME280_temperature;BME280_humidity;BME280_pressure;Samples;Min_cycle;Max_cycle;Signal;HPM_P1;HPM_P2
2023/03/08 00:02:04;;;;;;;10.57;7.53;;;;;;;10.27;35.49;97433.78;6968135;28;20210;-79
2023/03/08 00:05:27;;;;;;;10.10;6.97;;;;;;;10.16;35.22;97437.31;6970094;28;20284;-79
2023/03/08 00:08:48;;;;;;;10.00;7.07;;;;;;;9.81;35.75;97439.94;6967694;28;20764;-78
2023/03/08 00:12:10;;;;;;;11.03;7.37;;;;;;;10.17;35.48;97426.28;6968531;28;20712;-78
2023/03/08 00:15:31;;;;;;;11.33;7.33;;;;;;;10.19;35.48;97442.22;6968022;28;20226;-79
2023/03/08 00:18:53;;;;;;;10.07;7.60;;;;;;;10.19;35.69;97437.66;6967941;28;20222;-78
2023/03/08 00:22:16;;;;;;;9.17;7.20;;;;;;;9.66;36.48;97446.84;6968321;28;20232;-79
2023/03/08 00:25:37;;;;;;;12.23;7.57;;;;;;;10.27;35.50;97453.44;6969581;28;20207;-78
2023/03/08 00:28:59;;;;;;;11.57;8.60;;;;;;;9.95;36.28;97440.56;6995583;28;20718;-79
2023/03/08 00:32:20;;;;;;;12.90;8.23;;;;;;;10.01;36.34;97439.63;6995904;28;20210;-80
2023/03/08 00:35:42;;;;;;;9.80;7.53;;;;;;;9.19;37.22;97443.25;6995701;28;20370;-78
2023/03/08 00:39:04;;;;;;;10.57;7.73;;;;;;;9.69;36.99;97430.25;6994715;28;20759;-79
2023/03/08 00:42:26;;;;;;;9.90;6.93;;;;;;;10.05;36.28;97444.31;6997159;28;20697;-80
2023/03/08 00:45:47;;;;;;;10.83;7.33;;;;;;;9.75;36.82;97459.72;6997619;28;20210;-79
2023/03/08 00:49:09;;;;;;;9.27;7.30;;;;;;;9.35;37.19;97442.59;6997583;28;20225;-79
2023/03/08 00:52:31;;;;;;;9.70;6.97;;;;;;;9.26;37.76;97456.56;6998764;28;20205;-79
2023/03/08 00:55:55;;;;;;;13.43;7.70;;;;;;;9.68;37.74;97442.06;6999700;28;20739;-81
2023/03/08 00:59:16;;;;;;;12.40;8.30;;;;;;;9.45;37.74;97447.41;6996545;28;20367;-80
2023/03/08 01:02:39;;;;;;;11.77;7.63;;;;;;;9.35;37.58;97410.31;7001308;28;20345;-80
2023/03/08 01:06:06;;;;;;;9.53;7.40;;;;;;;9.46;37.68;97428.31;7002135;28;20189;-80
2023/03/08 01:09:27;;;;;;;11.30;7.60;;;;;;;9.76;37.43;97402.19;7002631;28;20229;-80
2023/03/08 01:12:50;;;;;;;7.97;6.67;;;;;;;9.72;37.46;97403.69;7000652;28;20345;-79
2023/03/08 01:16:16;;;;;;;10.73;7.37;;;;;;;9.13;38.48;97401.16;6999355;28;20225;-79
2023/03/08 01:19:38;;;;;;;11.33;7.83;;;;;;;8.74;38.93;97403.59;7000138;28;20228;-80
2023/03/08 01:22:59;;;;;;;13.47;8.20;;;;;;;9.29;38.36;97394.28;7004884;28;20721;-80
2023/03/08 01:26:22;;;;;;;12.37;8.53;;;;;;;9.58;37.74;97391.50;7005381;28;20206;-79
2023/03/08 01:29:45;;;;;;;10.47;7.90;;;;;;;9.33;38.27;97398.97;7005853;28;20222;-80
2023/03/08 01:33:07;;;;;;;12.83;8.17;;;;;;;9.58;38.02;97396.88;7005251;28;20346;-79
2023/03/08 01:36:28;;;;;;;12.90;8.20;;;;;;;9.48;37.58;97334.78;7004568;28;20754;-80
2023/03/08 01:39:50;;;;;;;10.47;8.37;;;;;;;9.73;37.21;97367.66;7004283;28;20285;-79
2023/03/08 01:43:22;;;;;;;9.80;6.97;;;;;;;8.89;38.92;97365.56;7004957;28;20209;-79
2023/03/08 01:46:45;;;;;;;10.80;7.87;;;;;;;9.16;38.74;97359.53;7003885;28;20589;-79
2023/03/08 01:50:10;;;;;;;10.37;7.40;;;;;;;8.80;38.78;97350.78;7004472;28;20291;-79
2023/03/08 01:53:32;;;;;;;22.10;14.20;;;;;;;8.82;38.84;97329.88;7020075;28;20219;-78
2023/03/08 01:56:55;;;;;;;13.77;7.73;;;;;;;9.42;38.40;97353.72;7007944;28;20222;-79
2023/03/08 02:00:21;;;;;;;10.37;7.10;;;;;;;9.45;37.30;97358.66;6985102;28;20230;-79
2023/03/08 02:03:44;;;;;;;9.00;7.27;;;;;;;9.50;37.84;97353.41;6980354;28;20284;-79
2023/03/08 02:07:06;;;;;;;13.70;7.80;;;;;;;9.62;37.45;97348.84;6979961;28;20263;-78
2023/03/08 02:10:27;;;;;;;10.27;7.70;;;;;;;9.58;37.38;97351.16;6979780;28;20313;-79
2023/03/08 02:13:49;;;;;;;9.07;7.23;;;;;;;9.42;37.28;97319.59;7009171;28;20294;-79
2023/03/08 02:17:11;;;;;;;8.93;7.10;;;;;;;8.59;38.98;97303.78;7007378;28;20266;-79
2023/03/08 02:20:36;;;;;;;10.27;7.40;;;;;;;9.47;38.20;97333.16;7006137;28;20274;-79
2023/03/08 02:24:05;;;;;;;11.17;7.43;;;;;;;9.61;37.40;97347.16;7006413;28;20235;-79
2023/03/08 02:27:28;;;;;;;13.90;8.47;;;;;;;8.85;39.13;97334.81;7005716;28;20674;-79
2023/03/08 02:30:50;;;;;;;12.03;8.60;;;;;;;9.53;37.87;97351.06;7005797;28;20292;-79
2023/03/08 02:34:11;;;;;;;11.30;7.60;;;;;;;9.52;38.01;97337.81;7003503;28;20339;-78
2023/03/08 02:37:33;;;;;;;11.33;7.63;;;;;;;8.93;39.34;97321.03;6997475;28;20232;-79
2023/03/08 02:40:56;;;;;;;12.60;8.00;;;;;;;7.98;40.74;97326.44;6997813;28;20225;-78
2023/03/08 02:44:18;;;;;;;11.07;7.93;;;;;;;8.39;40.09;97322.03;6997984;28;20291;-78
2023/03/08 02:47:40;;;;;;;11.13;7.47;;;;;;;8.43;40.48;97325.91;6997420;28;20557;-78
2023/03/08 02:51:01;;;;;;;11.33;8.00;;;;;;;9.06;38.74;97313.59;6997477;28;20232;-79
2023/03/08 02:54:23;;;;;;;12.57;8.00;;;;;;;9.15;38.52;97299.56;6996899;28;20650;-79
2023/03/08 02:57:46;;;;;;;11.77;8.00;;;;;;;9.10;38.32;97304.00;6996929;28;20229;-77
2023/03/08 03:01:11;;;;;;;11.57;8.50;;;;;;;9.43;38.60;97307.78;6996360;28;20758;-78
2023/03/08 03:04:33;;;;;;;9.20;7.27;;;;;;;9.30;38.19;97305.31;6996897;28;20289;-78
2023/03/08 03:07:57;;;;;;;12.27;8.30;;;;;;;9.23;38.37;97303.78;6996927;28;20209;-78
2023/03/08 03:11:20;;;;;;;11.77;8.53;;;;;;;9.47;38.15;97302.75;6996816;28;20719;-78
2023/03/08 03:14:43;;;;;;;10.93;7.87;;;;;;;9.21;38.19;97265.56;6996847;28;20217;-78
2023/03/08 03:18:05;;;;;;;10.27;7.77;;;;;;;9.17;38.57;97273.25;6996428;28;20201;-78
2023/03/08 03:21:27;;;;;;;13.30;8.13;;;;;;;9.33;38.38;97261.00;6996116;28;20698;-78
2023/03/08 03:24:49;;;;;;;11.30;7.77;;;;;;;9.25;38.71;97254.09;6996155;28;20262;-78
2023/03/08 03:28:11;;;;;;;11.43;7.43;;;;;;;9.03;38.71;97252.25;6996239;28;20304;-78
2023/03/08 03:31:34;;;;;;;13.87;8.17;;;;;;;9.10;38.82;97242.19;6996739;28;20225;-78
2023/03/08 03:34:55;;;;;;;9.43;7.27;;;;;;;9.16;38.86;97238.56;6996739;28;20213;-78
2023/03/08 03:38:17;;;;;;;11.60;7.83;;;;;;;9.40;38.13;97226.72;6996100;28;20293;-78
2023/03/08 03:41:38;;;;;;;9.17;7.27;;;;;;;9.51;38.01;97232.09;6996232;28;20271;-78
2023/03/08 03:45:00;;;;;;;10.50;7.37;;;;;;;9.52;37.51;97182.59;6996342;28;20220;-78
2023/03/08 03:48:23;;;;;;;12.10;7.63;;;;;;;9.46;38.26;97223.91;6995821;28;20201;-78
2023/03/08 03:51:44;;;;;;;12.73;7.87;;;;;;;9.17;38.64;97210.63;6996389;28;20206;-80
2023/03/08 03:55:08;;;;;;;10.37;6.90;;;;;;;9.38;38.32;97215.38;6996335;28;20613;-78
2023/03/08 03:58:29;;;;;;;9.90;7.60;;;;;;;9.11;39.07;97209.66;6994328;28;20270;-78
2023/03/08 04:01:51;;;;;;;10.03;6.97;;;;;;;9.34;38.26;97201.59;6993174;28;20775;-79
2023/03/08 04:05:14;;;;;;;11.70;7.73;;;;;;;9.39;38.61;97208.97;7000090;28;20190;-79
2023/03/08 04:08:41;;;;;;;11.00;7.80;;;;;;;9.34;38.67;97203.47;7001051;28;20347;-79
2023/03/08 04:12:04;;;;;;;11.90;8.53;;;;;;;9.31;38.66;97199.38;7002382;28;20209;-79
2023/03/08 04:15:26;;;;;;;13.73;8.30;;;;;;;8.74;39.16;97180.59;7005179;28;20236;-79
2023/03/08 04:18:47;;;;;;;12.80;8.27;;;;;;;8.67;38.98;97120.75;7006499;28;20296;-79
2023/03/08 04:22:10;;;;;;;11.87;7.93;;;;;;;9.11;38.78;97181.97;7004178;28;20316;-80
2023/03/08 04:25:31;;;;;;;11.73;7.97;;;;;;;8.86;39.18;97161.78;7000312;28;20229;-81
2023/03/08 04:28:53;;;;;;;10.03;7.70;;;;;;;9.18;38.85;97180.81;6999136;28;20747;-79
2023/03/08 04:32:14;;;;;;;11.37;7.73;;;;;;;9.01;38.59;97133.38;6999691;28;20304;-79
2023/03/08 04:35:36;;;;;;;10.07;7.23;;;;;;;9.60;38.28;97176.03;7004210;28;20257;-79
2023/03/08 04:38:59;;;;;;;11.47;7.67;;;;;;;9.53;38.25;97180.75;7005227;28;20282;-80
2023/03/08 04:42:20;;;;;;;15.03;8.37;;;;;;;9.54;38.51;97177.00;7013581;28;20255;-79
2023/03/08 04:45:42;;;;;;;12.63;8.67;;;;;;;9.71;37.95;97177.88;7020471;28;20245;-79
2023/03/08 04:49:03;;;;;;;11.83;8.60;;;;;;;9.63;38.25;97176.38;7008364;28;20279;-79
2023/03/08 04:52:25;;;;;;;11.43;9.10;;;;;;;9.67;38.61;97163.25;7008783;28;20329;-79
2023/03/08 04:55:48;;;;;;;12.17;8.13;;;;;;;9.74;38.33;97156.69;7007530;28;20312;-79
2023/03/08 04:59:09;;;;;;;14.47;8.70;;;;;;;9.81;37.64;97133.13;6980219;28;20307;-79
2023/03/08 05:02:31;;;;;;;12.37;7.93;;;;;;;9.71;38.20;97156.34;6979400;28;20756;-79
2023/03/08 05:05:55;;;;;;;11.80;8.10;;;;;;;9.55;38.33;97135.56;6979790;28;20187;-78
2023/03/08 05:09:16;;;;;;;11.50;8.00;;;;;;;9.30;38.86;97125.16;6979640;28;20361;-79
2023/03/08 05:12:39;;;;;;;11.33;8.33;;;;;;;8.92;39.12;97118.66;6990954;28;20213;-79
2023/03/08 05:16:01;;;;;;;10.53;8.03;;;;;;;9.58;38.60;97111.69;7001160;28;20258;-79
2023/03/08 05:19:22;;;;;;;15.03;8.43;;;;;;;9.82;38.18;97107.88;7001302;28;20285;-79
2023/03/08 05:22:44;;;;;;;10.37;8.50;;;;;;;9.60;37.88;97069.25;7000574;28;20206;-80
2023/03/08 05:26:07;;;;;;;9.93;7.80;;;;;;;9.69;38.14;97088.53;7000873;28;20263;-79
2023/03/08 05:29:30;;;;;;;12.27;8.97;;;;;;;9.87;37.96;97112.53;7001448;28;20290;-79
2023/03/08 05:32:51;;;;;;;11.77;8.47;;;;;;;9.97;37.51;97104.63;7000526;28;20266;-79
2023/03/08 05:36:14;;;;;;;12.67;8.33;;;;;;;9.85;37.83;97118.16;7002774;28;20237;-81
2023/03/08 05:39:36;;;;;;;11.83;8.60;;;;;;;10.09;37.63;97124.28;7006475;28;20315;-80
2023/03/08 05:42:57;;;;;;;12.27;8.87;;;;;;;10.16;37.72;97108.78;6999151;28;20853;-80
2023/03/08 05:46:20;;;;;;;13.87;9.50;;;;;;;9.72;38.23;97098.78;6995988;28;20301;-80
2023/03/08 05:49:41;;;;;;;11.67;8.47;;;;;;;9.45;39.23;97093.16;6998540;28;20222;-80
2023/03/08 05:53:03;;;;;;;10.87;7.97;;;;;;;9.47;39.14;97090.25;6985120;28;20601;-80
2023/03/08 05:56:25;;;;;;;13.30;8.30;;;;;;;9.41;38.70;97059.75;6987309;28;20316;-80
2023/03/08 05:59:46;;;;;;;13.10;9.20;;;;;;;9.96;38.15;97084.97;7006034;28;20305;-80
2023/03/08 06:03:09;;;;;;;13.47;9.13;;;;;;;9.52;38.71;97088.44;7010169;28;20296;-79
2023/03/08 06:06:31;;;;;;;12.20;8.57;;;;;;;9.77;38.41;97083.56;6995672;28;20885;-80
2023/03/08 06:09:53;;;;;;;13.27;9.30;;;;;;;9.99;38.06;97095.25;6999705;28;20302;-80
2023/03/08 06:13:15;;;;;;;14.70;9.43;;;;;;;9.86;38.37;97094.75;6999375;28;20194;-80
2023/03/08 06:16:36;;;;;;;12.90;8.77;;;;;;;10.09;37.81;97086.59;6996148;28;20312;-79
2023/03/08 06:19:59;;;;;;;12.67;8.43;;;;;;;9.47;37.94;97093.75;7004479;28;20297;-80
2023/03/08 06:23:20;;;;;;;12.50;8.40;;;;;;;9.44;38.64;97055.75;6989062;28;20229;-80
2023/03/08 06:26:42;;;;;;;12.87;8.40;;;;;;;10.10;37.50;97082.81;7003469;28;20284;-80
2023/03/08 06:30:04;;;;;;;11.83;8.10;;;;;;;10.18;37.78;97068.94;7012829;28;20306;-80
2023/03/08 06:33:27;;;;;;;11.93;8.73;;;;;;;10.19;38.00;97074.09;7012862;28;20245;-79
2023/03/08 06:36:50;;;;;;;12.27;10.20;;;;;;;10.02;38.31;97054.41;6977679;28;20226;-82
2023/03/08 06:40:13;;;;;;;13.90;10.57;;;;;;;10.23;38.39;97069.03;7007574;28;20613;-80
2023/03/08 06:43:35;;;;;;;12.43;9.93;;;;;;;10.18;38.77;97053.63;7007267;28;20218;-79
2023/03/08 06:46:57;;;;;;;13.07;8.80;;;;;;;10.38;37.83;97043.16;7005273;28;20217;-80
2023/03/08 06:50:19;;;;;;;12.77;9.13;;;;;;;10.43;38.18;97053.19;7008459;28;20705;-79
2023/03/08 06:53:41;;;;;;;10.67;8.87;;;;;;;10.04;38.58;97011.13;7008481;28;20202;-80
2023/03/08 06:57:03;;;;;;;14.67;9.77;;;;;;;10.03;38.97;97031.81;7008485;28;20770;-80
2023/03/08 07:00:25;;;;;;;14.50;9.30;;;;;;;10.22;38.38;97016.25;7006843;28;20675;-80
2023/03/08 07:03:47;;;;;;;14.97;9.90;;;;;;;10.36;38.20;97014.84;7008531;28;20186;-80
2023/03/08 07:07:09;;;;;;;12.37;8.70;;;;;;;10.43;38.53;97012.78;7008533;28;20785;-80
2023/03/08 07:10:32;;;;;;;13.60;9.53;;;;;;;9.99;38.98;97008.31;7001162;28;20354;-79
2023/03/08 07:13:53;;;;;;;12.07;9.67;;;;;;;10.14;39.10;97012.09;6979919;28;20241;-80
2023/03/08 07:17:15;;;;;;;13.20;9.50;;;;;;;9.43;39.63;96987.69;7005644;28;20669;-79
2023/03/08 07:20:36;;;;;;;12.30;8.70;;;;;;;9.89;39.58;96987.44;7002123;28;20286;-81
2023/03/08 07:23:57;;;;;;;11.53;8.47;;;;;;;10.26;38.94;96983.19;7009656;28;20372;-80
2023/03/08 07:27:20;;;;;;;12.43;8.17;;;;;;;10.43;38.72;96975.88;7007723;28;20273;-81
2023/03/08 07:30:46;;;;;;;15.40;9.07;;;;;;;10.31;38.30;96977.03;7009300;28;20791;-81
2023/03/08 07:34:08;;;;;;;15.37;8.93;;;;;;;10.03;39.25;96974.47;7011067;28;20643;-81
2023/03/08 07:37:29;;;;;;;16.27;10.07;;;;;;;9.87;39.68;96986.03;7008555;28;20374;-81
2023/03/08 07:40:54;;;;;;;11.23;8.47;;;;;;;10.33;38.54;96956.09;7010126;28;20376;-81
2023/03/08 07:44:17;;;;;;;11.63;8.83;;;;;;;10.37;39.00;96981.44;7007331;28;20556;-79
2023/03/08 07:47:39;;;;;;;12.73;8.97;;;;;;;10.24;38.81;96963.78;6984422;28;20619;-79
2023/03/08 07:51:02;;;;;;;15.83;10.40;;;;;;;10.20;38.90;96946.47;6980487;28;20222;-81
2023/03/08 07:54:24;;;;;;;14.90;10.40;;;;;;;9.98;39.69;96958.22;6981232;28;20220;-80
2023/03/08 07:57:45;;;;;;;16.07;10.83;;;;;;;10.29;39.46;96942.31;7003921;28;20362;-80
2023/03/08 08:01:10;;;;;;;13.50;8.87;;;;;;;10.78;39.16;96930.53;6989218;28;20348;-79
2023/03/08 08:04:31;;;;;;;15.53;9.03;;;;;;;10.95;39.40;96927.75;6980087;28;20254;-79
2023/03/08 08:07:53;;;;;;;17.63;10.77;;;;;;;10.95;39.06;96920.50;6985197;28;20768;-80
2023/03/08 08:11:15;;;;;;;14.87;10.50;;;;;;;11.17;38.61;96917.75;7009711;28;20694;-80
2023/03/08 08:14:37;;;;;;;17.37;10.90;;;;;;;11.29;38.51;96913.03;7003598;28;20298;-80
2023/03/08 08:18:00;;;;;;;17.63;11.07;;;;;;;11.11;39.63;96889.09;7011974;28;20270;-80
2023/03/08 08:21:21;;;;;;;14.13;10.57;;;;;;;11.32;39.38;96891.75;7013346;28;20225;-78
2023/03/08 08:24:43;;;;;;;12.73;10.07;;;;;;;11.39;39.02;96880.75;7009588;28;20209;-79
2023/03/08 08:28:05;;;;;;;13.27;9.27;;;;;;;11.42;39.79;96874.81;7012386;28;20855;-79
2023/03/08 08:31:29;;;;;;;16.43;10.37;;;;;;;11.51;38.87;96865.19;7016076;28;20258;-79
2023/03/08 08:34:52;;;;;;;13.93;10.13;;;;;;;11.06;38.99;96832.44;7013213;28;20205;-79
2023/03/08 08:38:14;;;;;;;15.00;9.90;;;;;;;11.44;38.57;96838.41;7012702;28;20316;-79
2023/03/08 08:41:35;;;;;;;13.30;9.73;;;;;;;10.71;40.49;96830.22;7013619;28;20576;-79
2023/03/08 08:44:57;;;;;;;14.60;10.90;;;;;;;9.57;43.11;96810.69;7013708;28;20272;-79
2023/03/08 08:48:18;;;;;;;19.53;11.27;;;;;;;8.99;46.42;96818.34;7004764;28;20541;-79
2023/03/08 08:51:41;;;;;;;16.60;10.70;;;;;;;8.56;47.49;96796.63;7006949;28;20687;-79
2023/03/08 08:55:03;;;;;;;16.70;11.03;;;;;;;9.00;47.96;96811.91;7014115;28;20717;-81
2023/03/08 08:58:25;;;;;;;15.90;11.50;;;;;;;9.58;47.17;96812.31;7014630;28;20225;-80
2023/03/08 09:01:47;;;;;;;16.63;11.10;;;;;;;9.94;46.00;96795.56;7009477;28;20213;-79
2023/03/08 09:05:10;;;;;;;16.40;11.13;;;;;;;10.33;46.89;96799.88;7009031;28;20186;-79
2023/03/08 09:08:33;;;;;;;14.40;11.10;;;;;;;10.31;47.25;96793.91;7010528;28;20206;-79
2023/03/08 09:11:55;;;;;;;16.50;11.13;;;;;;;10.50;46.55;96796.00;7011390;28;20209;-79
2023/03/08 09:15:16;;;;;;;17.17;12.00;;;;;;;10.06;47.64;96788.22;7007504;28;20953;-79
2023/03/08 09:18:38;;;;;;;18.43;11.83;;;;;;;9.59;50.12;96795.91;7011463;28;20316;-80
2023/03/08 09:21:59;;;;;;;20.03;12.47;;;;;;;9.86;48.92;96798.72;7005887;28;20208;-81
2023/03/08 09:25:23;;;;;;;15.70;11.40;;;;;;;10.35;48.75;96781.56;7007122;28;20310;-80
2023/03/08 09:28:44;;;;;;;16.37;11.80;;;;;;;11.07;47.03;96786.34;7007687;28;20232;-79
2023/03/08 09:32:06;;;;;;;17.17;11.20;;;;;;;11.44;45.96;96760.19;7005274;28;20577;-80
2023/03/08 09:35:28;;;;;;;14.40;11.17;;;;;;;11.43;45.91;96758.56;7001821;28;20265;-80
2023/03/08 09:38:51;;;;;;;14.97;10.93;;;;;;;11.28;46.63;96746.84;7005094;28;20320;-79
2023/03/08 09:42:20;;;;;;;16.67;11.43;;;;;;;10.91;48.59;96749.53;7003314;28;20301;-79
2023/03/08 09:45:42;;;;;;;15.53;11.43;;;;;;;10.81;48.56;96713.59;7000009;28;20220;-79
2023/03/08 09:49:05;;;;;;;18.03;12.23;;;;;;;10.60;49.34;96719.88;7005306;28;20256;-81
2023/03/08 09:52:32;;;;;;;17.37;11.13;;;;;;;10.54;48.06;96640.88;7004788;28;20292;-81
2023/03/08 09:55:56;;;;;;;16.67;11.07;;;;;;;10.73;48.69;96712.19;7005986;28;20208;-80
2023/03/08 09:59:22;;;;;;;17.33;12.47;;;;;;;11.15;49.42;96720.34;7001209;28;20367;-80
2023/03/08 10:02:49;;;;;;;15.00;11.07;;;;;;;11.07;48.10;96651.53;6991138;28;20287;-80
2023/03/08 10:06:13;;;;;;;13.50;10.83;;;;;;;11.52;47.51;96684.13;6975439;28;20436;-80
2023/03/08 10:09:38;;;;;;;16.70;11.80;;;;;;;11.75;48.37;96707.22;6973941;28;20222;-80
2023/03/08 10:13:30;;;;;;;18.03;11.40;;;;;;;12.13;47.03;96690.63;6998772;28;20202;-80
2023/03/08 10:16:55;;;;;;;14.70;11.07;;;;;;;11.49;46.86;96684.66;6987259;28;20303;-81
2023/03/08 10:20:20;;;;;;;15.20;10.47;;;;;;;12.03;46.44;96687.91;6971360;28;20324;-80
2023/03/08 10:23:42;;;;;;;12.30;9.23;;;;;;;11.85;46.48;96669.44;6975359;28;20217;-80
2023/03/08 10:27:15;;;;;;;12.13;8.40;;;;;;;12.12;45.73;96675.50;7006781;28;20197;-79
2023/03/08 10:30:40;;;;;;;11.27;8.43;;;;;;;12.37;45.25;96664.72;7003115;28;20368;-79
2023/03/08 10:34:10;;;;;;;10.03;7.90;;;;;;;12.39;44.49;96638.28;7005228;28;20289;-81
2023/03/08 10:37:33;;;;;;;12.03;8.43;;;;;;;13.03;44.30;96653.69;7006770;28;20201;-84
2023/03/08 10:41:06;;;;;;;10.37;8.40;;;;;;;12.72;44.73;96665.59;7003738;28;20367;-78
2023/03/08 10:44:35;;;;;;;8.70;7.63;;;;;;;12.91;45.24;96668.53;7000468;28;20217;-80
2023/03/08 10:47:59;;;;;;;7.13;6.30;;;;;;;12.75;46.02;96659.63;6977027;28;20205;-81
2023/03/08 10:51:24;;;;;;;7.87;5.53;;;;;;;12.70;47.19;96648.00;6971647;28;20227;-79
2023/03/08 10:54:49;;;;;;;6.83;5.63;;;;;;;12.93;46.45;96620.41;6973049;28;20207;-82
2023/03/08 10:58:27;;;;;;;13.50;7.70;;;;;;;14.02;45.39;96635.50;6970969;28;20217;-79
2023/03/08 11:01:50;;;;;;;5.27;4.70;;;;;;;14.04;45.51;96633.31;6971792;28;20199;-81
2023/03/08 11:05:19;;;;;;;6.20;5.20;;;;;;;14.53;44.68;96614.34;6971851;28;20263;-80
2023/03/08 11:08:52;;;;;;;6.07;4.80;;;;;;;13.92;46.26;96607.66;6970168;28;20964;-79
2023/03/08 11:12:23;;;;;;;4.63;4.13;;;;;;;14.49;45.38;96626.81;6994870;28;20202;-79
2023/03/08 11:15:49;;;;;;;6.60;4.57;;;;;;;14.43;45.82;96625.25;6996072;28;20205;-79
2023/03/08 11:19:20;;;;;;;4.57;3.50;;;;;;;13.82;47.87;96613.13;6997205;28;20305;-80
2023/03/08 11:22:57;;;;;;;7.57;4.73;;;;;;;14.22;47.78;96615.66;6997257;28;20334;-80
2023/03/08 11:26:23;;;;;;;3.30;3.00;;;;;;;14.27;48.12;96612.91;6996370;28;20744;-79
2023/03/08 11:29:55;;;;;;;2.40;2.20;;;;;;;13.81;49.79;96625.06;6997472;28;20763;-82
2023/03/08 11:33:29;;;;;;;2.83;2.53;;;;;;;14.11;48.68;96562.56;6996685;28;20344;-79
2023/03/08 11:36:56;;;;;;;5.73;2.80;;;;;;;14.86;48.14;96630.59;6995522;28;20249;-79
2023/03/08 11:40:22;;;;;;;3.17;2.00;;;;;;;14.46;49.38;96627.41;6997738;28;20231;-81
2023/03/08 11:44:08;;;;;;;2.23;1.80;;;;;;;14.43;49.23;96626.06;6998140;28;20195;-79
2023/03/08 11:47:59;;;;;;;1.77;1.67;;;;;;;14.47;49.77;96626.31;6996553;28;20686;-80
2023/03/08 11:51:27;;;;;;;1.73;1.63;;;;;;;14.80;48.69;96610.03;6988072;28;20367;-80
2023/03/08 11:55:00;;;;;;;2.60;1.60;;;;;;;14.86;48.58;96608.09;6999092;28;20250;-80
2023/03/08 11:58:25;;;;;;;1.67;1.47;;;;;;;15.45;47.69;96608.63;6996825;28;20541;-80
2023/03/08 12:01:52;;;;;;;1.63;1.53;;;;;;;15.56;47.05;96610.91;6996818;28;20189;-80
2023/03/08 12:05:19;;;;;;;2.00;1.57;;;;;;;15.07;48.09;96609.50;6997468;28;20328;-80
2023/03/08 12:08:45;;;;;;;2.63;1.50;;;;;;;15.27;47.92;96622.91;6996787;28;20362;-81
2023/03/08 12:12:09;;;;;;;1.90;1.80;;;;;;;15.03;47.72;96597.59;6998134;28;20243;-80
2023/03/08 12:15:33;;;;;;;7.23;3.83;;;;;;;15.38;47.62;96625.25;6996781;28;20203;-81
2023/03/08 12:19:00;;;;;;;8.20;3.10;;;;;;;14.96;48.59;96611.53;6976230;28;20282;-80
2023/03/08 12:22:42;;;;;;;4.67;2.10;;;;;;;14.85;49.27;96612.72;6968181;28;20193;-80
2023/03/08 12:26:08;;;;;;;3.37;1.70;;;;;;;15.11;48.56;96621.44;6980425;28;20259;-78
2023/03/08 12:29:33;;;;;;;2.50;1.77;;;;;;;15.53;47.87;96616.13;6966851;28;20312;-78
2023/03/08 12:32:55;;;;;;;2.20;1.97;;;;;;;16.13;46.19;96601.75;6968960;28;20350;-80
2023/03/08 12:36:21;;;;;;;2.00;1.33;;;;;;;15.44;47.92;96632.22;6995522;28;20279;-79
2023/03/08 12:39:42;;;;;;;1.70;1.60;;;;;;;15.88;46.91;96621.94;6977109;28;20293;-81
2023/03/08 12:43:10;;;;;;;1.97;1.40;;;;;;;16.21;46.35;96631.81;6975151;28;20290;-79
2023/03/08 12:46:49;;;;;;;2.13;1.77;;;;;;;16.19;46.28;96622.31;6989066;28;20587;-79
2023/03/08 12:50:16;;;;;;;1.47;1.37;;;;;;;15.75;47.47;96630.78;6968445;28;20287;-78
2023/03/08 12:53:41;;;;;;;1.67;1.57;;;;;;;15.95;47.08;96614.25;6995849;28;20358;-78
2023/03/08 12:57:14;;;;;;;1.80;1.30;;;;;;;16.30;46.09;96621.91;7000815;28;20598;-78
2023/03/08 13:00:37;;;;;;;1.63;1.13;;;;;;;16.05;46.76;96633.09;6999185;28;20640;-78
2023/03/08 13:03:59;;;;;;;1.20;1.10;;;;;;;15.99;46.85;96630.78;7000679;28;20673;-79
2023/03/08 13:07:25;;;;;;;1.50;1.40;;;;;;;16.06;47.02;96610.28;7000868;28;20281;-79
2023/03/08 13:11:01;;;;;;;1.83;1.40;;;;;;;15.98;47.05;96637.31;7006214;28;20283;-80
2023/03/08 13:14:26;;;;;;;1.50;1.40;;;;;;;15.97;47.34;96632.94;7009497;28;20204;-80
2023/03/08 13:17:50;;;;;;;1.40;1.30;;;;;;;15.97;47.62;96625.63;6978892;28;20263;-80
2023/03/08 13:21:23;;;;;;;3.30;1.30;;;;;;;15.46;48.72;96645.53;6978107;28;20320;-80
2023/03/08 13:24:49;;;;;;;3.83;2.60;;;;;;;15.66;47.86;96602.66;6979763;28;20267;-83
2023/03/08 13:28:13;;;;;;;4.73;2.20;;;;;;;15.77;47.98;96625.06;6978537;28;20337;-82
2023/03/08 13:31:34;;;;;;;3.00;1.30;;;;;;;16.08;47.56;96631.72;6979370;28;20319;-80
2023/03/08 13:35:01;;;;;;;2.37;1.53;;;;;;;15.76;48.21;96610.66;6977750;28;20210;-80
2023/03/08 13:38:24;;;;;;;4.73;1.73;;;;;;;16.53;46.41;96652.88;6975551;28;20370;-78
2023/03/08 13:41:46;;;;;;;1.43;1.30;;;;;;;15.73;48.19;96640.31;6991991;28;20206;-79
2023/03/08 13:45:17;;;;;;;2.30;1.30;;;;;;;16.29;47.17;96627.63;7000507;28;20286;-80
2023/03/08 13:48:38;;;;;;;1.50;1.40;;;;;;;16.68;46.43;96628.16;6999498;28;20201;-79
2023/03/08 13:52:01;;;;;;;1.13;1.13;;;;;;;16.02;47.87;96644.56;7000219;28;20202;-78
2023/03/08 13:55:27;;;;;;;1.23;1.20;;;;;;;16.06;47.79;96615.72;7000454;28;20220;-80
2023/03/08 13:58:49;;;;;;;1.30;1.20;;;;;;;16.44;46.99;96605.66;6998933;28;20443;-80
2023/03/08 14:02:20;;;;;;;4.63;1.73;;;;;;;16.45;46.63;96594.50;6998464;28;20227;-80
2023/03/08 14:05:44;;;;;;;1.37;1.37;;;;;;;16.52;46.93;96594.13;6998551;28;20212;-79
2023/03/08 14:09:06;;;;;;;1.00;1.00;;;;;;;16.37;47.22;96583.44;6999395;28;20593;-78
2023/03/08 14:12:30;;;;;;;1.50;1.33;;;;;;;16.94;46.29;96572.19;6998743;28;20206;-78
2023/03/08 14:15:53;;;;;;;2.33;1.30;;;;;;;16.87;45.88;96548.09;6998542;28;20205;-79
2023/03/08 14:19:22;;;;;;;0.90;0.90;;;;;;;16.38;47.16;96550.56;6983502;28;20237;-79
2023/03/08 14:22:47;;;;;;;1.30;1.20;;;;;;;17.07;45.79;96566.78;6970865;28;20698;-79
2023/03/08 14:26:24;;;;;;;0.90;0.90;;;;;;;17.07;45.28;96557.81;6982582;28;20265;-80
2023/03/08 14:29:46;;;;;;;0.90;0.90;;;;;;;17.23;45.08;96561.88;6998061;28;20628;-79
2023/03/08 14:33:20;;;;;;;1.07;1.07;;;;;;;17.04;45.77;96553.75;6997797;28;20205;-78
2023/03/08 14:36:46;;;;;;;0.90;0.90;;;;;;;17.28;44.84;96557.13;6997646;28;20735;-78
2023/03/08 14:40:27;;;;;;;0.90;0.90;;;;;;;16.47;46.38;96556.13;7001269;28;20229;-79
2023/03/08 14:43:49;;;;;;;0.83;0.83;;;;;;;16.36;46.66;96560.09;7006053;28;20600;-79
2023/03/08 14:47:20;;;;;;;1.40;1.23;;;;;;;16.77;45.94;96539.31;6997285;28;20359;-79
2023/03/08 14:50:52;;;;;;;1.40;1.30;;;;;;;17.30;46.02;96533.13;6997832;28;20386;-79
2023/03/08 14:54:28;;;;;;;0.90;0.90;;;;;;;17.18;45.56;96529.28;6989367;28;20198;-80
2023/03/08 14:57:51;;;;;;;0.97;0.97;;;;;;;17.09;46.05;96521.00;6996874;28;20210;-79
2023/03/08 15:01:23;;;;;;;5.33;1.20;;;;;;;16.62;47.85;96536.81;6995069;28;20374;-79
2023/03/08 15:04:45;;;;;;;1.10;1.00;;;;;;;16.88;46.81;96538.00;6996920;28;20284;-79
2023/03/08 15:08:09;;;;;;;1.07;0.83;;;;;;;16.79;47.14;96545.25;6996899;28;20300;-79
2023/03/08 15:11:32;;;;;;;1.30;1.20;;;;;;;16.72;47.21;96523.06;6996948;28;20360;-78
2023/03/08 15:14:54;;;;;;;1.50;1.40;;;;;;;16.77;47.60;96561.06;6997442;28;20303;-79
2023/03/08 15:18:16;;;;;;;2.53;1.40;;;;;;;16.56;48.12;96517.06;6995301;28;20313;-79
2023/03/08 15:21:37;;;;;;;1.13;1.10;;;;;;;17.06;47.27;96529.78;6996970;28;20313;-79
2023/03/08 15:24:59;;;;;;;1.90;1.10;;;;;;;17.02;47.13;96533.38;6996744;28;20734;-79
2023/03/08 15:28:23;;;;;;;2.33;1.10;;;;;;;17.22;47.02;96543.91;6996283;28;20206;-79
2023/03/08 15:31:44;;;;;;;1.10;1.00;;;;;;;17.03;47.79;96524.94;6996808;28;20289;-80
2023/03/08 15:35:06;;;;;;;1.17;1.07;;;;;;;17.27;46.82;96528.28;6996793;28;20343;-80
2023/03/08 15:38:28;;;;;;;1.20;1.10;;;;;;;16.85;47.62;96527.72;6995846;28;20634;-79
2023/03/08 15:41:49;;;;;;;0.93;0.93;;;;;;;16.76;48.04;96516.72;6996516;28;20241;-79
2023/03/08 15:45:13;;;;;;;5.83;1.43;;;;;;;16.66;48.17;96511.47;6996253;28;20214;-79
2023/03/08 15:48:34;;;;;;;1.87;1.40;;;;;;;17.16;47.63;96510.50;6981964;28;20844;-79
2023/03/08 15:51:56;;;;;;;5.43;1.57;;;;;;;17.09;47.39;96493.78;6992315;28;20198;-79
2023/03/08 15:55:17;;;;;;;9.80;5.83;;;;;;;17.25;46.94;96507.91;6973389;28;20367;-80